sensor_id;sensor_type;location;lat;lon;timestamp;P1;durP1;ratioP1;P2;durP2;ratioP2
966;SDS011;56108;48.730;9.304;2022-07-15T00:02:08;5.75;;;4.25;;
966;SDS011;56108;48.730;9.304;2022-07-15T00:04:16;4.40;;;4.10;;
966;SDS011;56108;48.730;9.304;2022-07-15T00:06:25;4.30;;;4.00;;
966;SDS011;56108;48.730;9.304;2022-07-15T00:08:40;4.70;;;4.30;;
966;SDS011;56108;48.730;9.304;2022-07-15T00:11:08;4.15;;;3.70;;
966;SDS011;56108;48.730;9.304;2022-07-15T00:13:19;3.90;;;3.60;;
966;SDS011;56108;48.730;9.304;2022-07-15T00:15:29;4.20;;;3.90;;
966;SDS011;56108;48.730;9.304;2022-07-15T00:17:38;3.67;;;3.38;;
966;SDS011;56108;48.730;9.304;2022-07-15T00:19:46;4.43;;;4.03;;
966;SDS011;56108;48.730;9.304;2022-07-15T00:21:54;3.85;;;3.55;;
966;SDS011;56108;48.730;9.304;2022-07-15T00:24:03;4.40;;;3.90;;
966;SDS011;56108;48.730;9.304;2022-07-15T00:26:11;3.80;;;3.60;;
966;SDS011;56108;48.730;9.304;2022-07-15T00:28:22;4.82;;;4.50;;
966;SDS011;56108;48.730;9.304;2022-07-15T00:30:31;3.80;;;3.50;;
966;SDS011;56108;48.730;9.304;2022-07-15T00:32:40;3.65;;;3.35;;
966;SDS011;56108;48.730;9.304;2022-07-15T00:34:48;3.90;;;3.20;;
966;SDS011;56108;48.730;9.304;2022-07-15T00:36:55;3.90;;;3.60;;
966;SDS011;56108;48.730;9.304;2022-07-15T00:39:04;4.22;;;3.60;;
966;SDS011;56108;48.730;9.304;2022-07-15T00:41:11;3.80;;;3.50;;
966;SDS011;56108;48.730;9.304;2022-07-15T00:43:22;3.90;;;3.60;;
966;SDS011;56108;48.730;9.304;2022-07-15T00:45:31;3.92;;;3.63;;
966;SDS011;56108;48.730;9.304;2022-07-15T00:47:40;4.60;;;4.20;;
966;SDS011;56108;48.730;9.304;2022-07-15T00:49:48;4.40;;;4.00;;
966;SDS011;56108;48.730;9.304;2022-07-15T00:51:56;3.53;;;3.33;;
966;SDS011;56108;48.730;9.304;2022-07-15T00:54:06;4.00;;;3.70;;
966;SDS011;56108;48.730;9.304;2022-07-15T00:56:16;3.95;;;3.65;;
966;SDS011;56108;48.730;9.304;2022-07-15T00:58:30;4.07;;;3.78;;
966;SDS011;56108;48.730;9.304;2022-07-15T01:00:41;3.65;;;3.35;;
966;SDS011;56108;48.730;9.304;2022-07-15T01:02:50;4.10;;;3.80;;
966;SDS011;56108;48.730;9.304;2022-07-15T01:04:59;4.55;;;4.05;;
966;SDS011;56108;48.730;9.304;2022-07-15T01:07:10;4.57;;;4.18;;
966;SDS011;56108;48.730;9.304;2022-07-15T01:09:19;3.95;;;3.65;;
966;SDS011;56108;48.730;9.304;2022-07-15T01:11:27;4.40;;;4.05;;
966;SDS011;56108;48.730;9.304;2022-07-15T01:13:44;4.05;;;3.75;;
966;SDS011;56108;48.730;9.304;2022-07-15T01:15:53;4.30;;;4.00;;
966;SDS011;56108;48.730;9.304;2022-07-15T01:18:02;4.20;;;3.80;;
966;SDS011;56108;48.730;9.304;2022-07-15T01:20:15;3.92;;;3.65;;
966;SDS011;56108;48.730;9.304;2022-07-15T01:22:38;4.38;;;4.00;;
966;SDS011;56108;48.730;9.304;2022-07-15T01:24:46;4.60;;;4.30;;
966;SDS011;56108;48.730;9.304;2022-07-15T01:26:58;4.38;;;4.07;;
966;SDS011;56108;48.730;9.304;2022-07-15T01:29:06;4.63;;;4.20;;
966;SDS011;56108;48.730;9.304;2022-07-15T01:31:14;4.90;;;3.90;;
966;SDS011;56108;48.730;9.304;2022-07-15T01:33:23;5.00;;;3.50;;
966;SDS011;56108;48.730;9.304;2022-07-15T01:35:31;6.43;;;4.20;;
966;SDS011;56108;48.730;9.304;2022-07-15T01:37:42;4.05;;;3.60;;
966;SDS011;56108;48.730;9.304;2022-07-15T01:39:50;4.13;;;3.83;;
966;SDS011;56108;48.730;9.304;2022-07-15T01:41:58;4.32;;;3.90;;
966;SDS011;56108;48.730;9.304;2022-07-15T01:44:06;3.50;;;3.20;;
966;SDS011;56108;48.730;9.304;2022-07-15T01:46:14;3.50;;;3.20;;
966;SDS011;56108;48.730;9.304;2022-07-15T01:48:22;3.25;;;3.05;;
966;SDS011;56108;48.730;9.304;2022-07-15T01:51:01;3.50;;;3.20;;
966;SDS011;56108;48.730;9.304;2022-07-15T01:53:12;2.92;;;2.70;;
966;SDS011;56108;48.730;9.304;2022-07-15T01:55:23;4.05;;;3.75;;
966;SDS011;56108;48.730;9.304;2022-07-15T01:57:33;4.95;;;3.65;;
966;SDS011;56108;48.730;9.304;2022-07-15T01:59:45;4.30;;;3.90;;
966;SDS011;56108;48.730;9.304;2022-07-15T02:02:00;3.65;;;3.35;;
966;SDS011;56108;48.730;9.304;2022-07-15T02:04:09;3.17;;;2.97;;
966;SDS011;56108;48.730;9.304;2022-07-15T02:06:17;3.38;;;2.92;;
966;SDS011;56108;48.730;9.304;2022-07-15T02:08:28;3.55;;;3.25;;
966;SDS011;56108;48.730;9.304;2022-07-15T02:10:36;3.60;;;3.30;;
966;SDS011;56108;48.730;9.304;2022-07-15T02:12:51;3.95;;;3.70;;
966;SDS011;56108;48.730;9.304;2022-07-15T02:15:04;3.83;;;3.42;;
966;SDS011;56108;48.730;9.304;2022-07-15T02:17:22;3.47;;;3.28;;
966;SDS011;56108;48.730;9.304;2022-07-15T02:19:32;3.50;;;3.30;;
966;SDS011;56108;48.730;9.304;2022-07-15T02:21:40;4.07;;;3.67;;
966;SDS011;56108;48.730;9.304;2022-07-15T02:23:52;4.30;;;3.45;;
966;SDS011;56108;48.730;9.304;2022-07-15T02:26:02;5.88;;;4.20;;
966;SDS011;56108;48.730;9.304;2022-07-15T02:28:10;4.10;;;3.17;;
966;SDS011;56108;48.730;9.304;2022-07-15T02:30:19;4.25;;;3.75;;
966;SDS011;56108;48.730;9.304;2022-07-15T02:32:28;4.07;;;3.75;;
966;SDS011;56108;48.730;9.304;2022-07-15T02:34:37;4.75;;;4.30;;
966;SDS011;56108;48.730;9.304;2022-07-15T02:36:46;4.18;;;3.55;;
966;SDS011;56108;48.730;9.304;2022-07-15T02:38:57;4.00;;;3.70;;
966;SDS011;56108;48.730;9.304;2022-07-15T02:41:10;4.25;;;3.88;;
966;SDS011;56108;48.730;9.304;2022-07-15T02:43:22;4.32;;;4.03;;
966;SDS011;56108;48.730;9.304;2022-07-15T02:45:33;4.57;;;4.25;;
966;SDS011;56108;48.730;9.304;2022-07-15T02:47:46;4.90;;;4.35;;
966;SDS011;56108;48.730;9.304;2022-07-15T02:50:01;4.97;;;4.55;;
966;SDS011;56108;48.730;9.304;2022-07-15T02:52:12;5.60;;;4.32;;
966;SDS011;56108;48.730;9.304;2022-07-15T02:54:29;5.43;;;4.60;;
966;SDS011;56108;48.730;9.304;2022-07-15T02:56:37;5.28;;;4.63;;
966;SDS011;56108;48.730;9.304;2022-07-15T02:58:46;4.68;;;4.28;;
966;SDS011;56108;48.730;9.304;2022-07-15T03:00:56;5.25;;;4.70;;
966;SDS011;56108;48.730;9.304;2022-07-15T03:03:08;5.72;;;5.22;;
966;SDS011;56108;48.730;9.304;2022-07-15T03:05:18;4.97;;;4.53;;
966;SDS011;56108;48.730;9.304;2022-07-15T03:07:28;5.60;;;5.13;;
966;SDS011;56108;48.730;9.304;2022-07-15T03:09:39;6.05;;;5.22;;
966;SDS011;56108;48.730;9.304;2022-07-15T03:11:50;6.43;;;5.82;;
966;SDS011;56108;48.730;9.304;2022-07-15T03:13:59;7.03;;;6.32;;
966;SDS011;56108;48.730;9.304;2022-07-15T03:16:08;6.22;;;5.55;;
966;SDS011;56108;48.730;9.304;2022-07-15T03:18:21;6.75;;;6.13;;
966;SDS011;56108;48.730;9.304;2022-07-15T03:20:31;8.50;;;7.68;;
966;SDS011;56108;48.730;9.304;2022-07-15T03:22:41;7.60;;;6.85;;
966;SDS011;56108;48.730;9.304;2022-07-15T03:24:53;8.95;;;8.18;;
966;SDS011;56108;48.730;9.304;2022-07-15T03:27:03;8.43;;;7.63;;
966;SDS011;56108;48.730;9.304;2022-07-15T03:29:12;7.68;;;7.07;;
966;SDS011;56108;48.730;9.304;2022-07-15T03:31:21;7.10;;;6.50;;
966;SDS011;56108;48.730;9.304;2022-07-15T03:33:31;7.95;;;7.25;;
966;SDS011;56108;48.730;9.304;2022-07-15T03:35:40;8.60;;;7.40;;
966;SDS011;56108;48.730;9.304;2022-07-15T03:37:49;7.57;;;6.88;;
966;SDS011;56108;48.730;9.304;2022-07-15T03:40:01;8.80;;;8.00;;
966;SDS011;56108;48.730;9.304;2022-07-15T03:42:12;8.02;;;7.10;;
966;SDS011;56108;48.730;9.304;2022-07-15T03:44:22;7.22;;;6.63;;
966;SDS011;56108;48.730;9.304;2022-07-15T03:46:30;9.45;;;7.50;;
966;SDS011;56108;48.730;9.304;2022-07-15T03:48:41;8.23;;;7.38;;
966;SDS011;56108;48.730;9.304;2022-07-15T03:50:49;7.80;;;7.15;;
966;SDS011;56108;48.730;9.304;2022-07-15T03:52:58;8.75;;;7.80;;
966;SDS011;56108;48.730;9.304;2022-07-15T03:55:11;7.80;;;7.10;;
966;SDS011;56108;48.730;9.304;2022-07-15T03:57:20;7.25;;;6.55;;
966;SDS011;56108;48.730;9.304;2022-07-15T03:59:30;6.30;;;5.70;;
966;SDS011;56108;48.730;9.304;2022-07-15T04:01:39;6.00;;;5.50;;
966;SDS011;56108;48.730;9.304;2022-07-15T04:03:49;9.52;;;5.45;;
966;SDS011;56108;48.730;9.304;2022-07-15T04:05:59;8.85;;;6.57;;
966;SDS011;56108;48.730;9.304;2022-07-15T04:08:09;6.60;;;5.55;;
966;SDS011;56108;48.730;9.304;2022-07-15T04:10:21;5.78;;;5.28;;
966;SDS011;56108;48.730;9.304;2022-07-15T04:12:31;5.88;;;5.47;;
966;SDS011;56108;48.730;9.304;2022-07-15T04:14:41;5.65;;;5.15;;
966;SDS011;56108;48.730;9.304;2022-07-15T04:16:53;5.00;;;4.55;;
966;SDS011;56108;48.730;9.304;2022-07-15T04:19:13;6.25;;;5.63;;
966;SDS011;56108;48.730;9.304;2022-07-15T04:21:22;5.97;;;5.47;;
966;SDS011;56108;48.730;9.304;2022-07-15T04:23:30;6.00;;;5.50;;
966;SDS011;56108;48.730;9.304;2022-07-15T04:25:42;6.82;;;5.80;;
966;SDS011;56108;48.730;9.304;2022-07-15T04:27:52;6.03;;;5.53;;
966;SDS011;56108;48.730;9.304;2022-07-15T04:30:07;6.05;;;5.50;;
966;SDS011;56108;48.730;9.304;2022-07-15T04:32:23;5.88;;;5.38;;
966;SDS011;56108;48.730;9.304;2022-07-15T04:34:33;10.50;;;9.60;;
966;SDS011;56108;48.730;9.304;2022-07-15T04:36:42;12.37;;;11.13;;
966;SDS011;56108;48.730;9.304;2022-07-15T04:38:51;10.30;;;9.50;;
966;SDS011;56108;48.730;9.304;2022-07-15T04:41:03;9.33;;;8.70;;
966;SDS011;56108;48.730;9.304;2022-07-15T04:43:18;9.50;;;8.80;;
966;SDS011;56108;48.730;9.304;2022-07-15T04:45:29;9.70;;;8.80;;
966;SDS011;56108;48.730;9.304;2022-07-15T04:47:38;8.50;;;7.90;;
966;SDS011;56108;48.730;9.304;2022-07-15T04:49:51;10.10;;;8.80;;
966;SDS011;56108;48.730;9.304;2022-07-15T04:52:12;9.40;;;8.60;;
966;SDS011;56108;48.730;9.304;2022-07-15T04:54:24;9.00;;;8.20;;
966;SDS011;56108;48.730;9.304;2022-07-15T04:56:36;8.27;;;7.60;;
966;SDS011;56108;48.730;9.304;2022-07-15T04:58:45;10.47;;;9.57;;
966;SDS011;56108;48.730;9.304;2022-07-15T05:00:53;13.60;;;12.30;;
966;SDS011;56108;48.730;9.304;2022-07-15T05:03:03;12.43;;;11.23;;
966;SDS011;56108;48.730;9.304;2022-07-15T05:05:12;12.40;;;11.37;;
966;SDS011;56108;48.730;9.304;2022-07-15T05:07:20;11.83;;;10.67;;
966;SDS011;56108;48.730;9.304;2022-07-15T05:09:29;10.63;;;9.63;;
966;SDS011;56108;48.730;9.304;2022-07-15T05:11:40;12.43;;;11.33;;
966;SDS011;56108;48.730;9.304;2022-07-15T05:13:49;10.73;;;9.80;;
966;SDS011;56108;48.730;9.304;2022-07-15T05:16:03;9.23;;;8.53;;
966;SDS011;56108;48.730;9.304;2022-07-15T05:18:13;9.83;;;9.03;;
966;SDS011;56108;48.730;9.304;2022-07-15T05:20:22;8.80;;;8.10;;
966;SDS011;56108;48.730;9.304;2022-07-15T05:22:31;8.20;;;7.40;;
966;SDS011;56108;48.730;9.304;2022-07-15T05:24:39;7.43;;;6.80;;
966;SDS011;56108;48.730;9.304;2022-07-15T05:26:54;7.70;;;7.00;;
966;SDS011;56108;48.730;9.304;2022-07-15T05:29:08;7.33;;;6.47;;
966;SDS011;56108;48.730;9.304;2022-07-15T05:31:18;7.00;;;6.30;;
966;SDS011;56108;48.730;9.304;2022-07-15T05:33:27;8.20;;;7.50;;
966;SDS011;56108;48.730;9.304;2022-07-15T05:35:36;6.77;;;6.27;;
966;SDS011;56108;48.730;9.304;2022-07-15T05:37:45;7.10;;;6.50;;
966;SDS011;56108;48.730;9.304;2022-07-15T05:40:00;6.20;;;5.80;;
966;SDS011;56108;48.730;9.304;2022-07-15T05:42:19;8.40;;;6.80;;
966;SDS011;56108;48.730;9.304;2022-07-15T05:44:32;7.07;;;6.47;;
966;SDS011;56108;48.730;9.304;2022-07-15T05:46:41;8.10;;;7.27;;
966;SDS011;56108;48.730;9.304;2022-07-15T05:48:49;5.97;;;5.33;;
966;SDS011;56108;48.730;9.304;2022-07-15T05:50:59;6.20;;;5.70;;
966;SDS011;56108;48.730;9.304;2022-07-15T05:53:08;7.17;;;6.40;;
966;SDS011;56108;48.730;9.304;2022-07-15T05:55:17;6.53;;;6.03;;
966;SDS011;56108;48.730;9.304;2022-07-15T05:57:31;5.67;;;5.03;;
966;SDS011;56108;48.730;9.304;2022-07-15T05:59:48;6.23;;;5.63;;
966;SDS011;56108;48.730;9.304;2022-07-15T06:01:57;4.90;;;4.60;;
966;SDS011;56108;48.730;9.304;2022-07-15T06:04:06;5.07;;;4.67;;
966;SDS011;56108;48.730;9.304;2022-07-15T06:06:17;5.70;;;5.30;;
966;SDS011;56108;48.730;9.304;2022-07-15T06:08:27;5.80;;;5.30;;
966;SDS011;56108;48.730;9.304;2022-07-15T06:10:35;5.50;;;4.97;;
966;SDS011;56108;48.730;9.304;2022-07-15T06:12:47;5.00;;;4.60;;
966;SDS011;56108;48.730;9.304;2022-07-15T06:14:58;5.47;;;5.07;;
966;SDS011;56108;48.730;9.304;2022-07-15T06:17:08;4.87;;;4.57;;
966;SDS011;56108;48.730;9.304;2022-07-15T06:19:16;4.80;;;4.50;;
966;SDS011;56108;48.730;9.304;2022-07-15T06:21:25;5.07;;;4.73;;
966;SDS011;56108;48.730;9.304;2022-07-15T06:23:35;6.63;;;3.77;;
966;SDS011;56108;48.730;9.304;2022-07-15T06:25:44;4.87;;;4.07;;
966;SDS011;56108;48.730;9.304;2022-07-15T06:27:55;3.60;;;3.30;;
966;SDS011;56108;48.730;9.304;2022-07-15T06:30:05;4.33;;;3.93;;
966;SDS011;56108;48.730;9.304;2022-07-15T06:32:15;5.10;;;3.77;;
966;SDS011;56108;48.730;9.304;2022-07-15T06:34:24;4.47;;;3.80;;
966;SDS011;56108;48.730;9.304;2022-07-15T06:36:32;3.63;;;3.33;;
966;SDS011;56108;48.730;9.304;2022-07-15T06:38:41;3.60;;;3.40;;
966;SDS011;56108;48.730;9.304;2022-07-15T06:40:49;3.80;;;3.40;;
966;SDS011;56108;48.730;9.304;2022-07-15T06:43:02;3.70;;;3.20;;
966;SDS011;56108;48.730;9.304;2022-07-15T06:45:33;6.57;;;3.73;;
966;SDS011;56108;48.730;9.304;2022-07-15T06:47:42;3.97;;;3.60;;
966;SDS011;56108;48.730;9.304;2022-07-15T06:49:51;3.33;;;3.03;;
966;SDS011;56108;48.730;9.304;2022-07-15T06:52:00;4.03;;;3.80;;
966;SDS011;56108;48.730;9.304;2022-07-15T06:54:09;4.33;;;3.40;;
966;SDS011;56108;48.730;9.304;2022-07-15T06:56:17;3.60;;;3.17;;
966;SDS011;56108;48.730;9.304;2022-07-15T06:58:28;4.37;;;3.40;;
966;SDS011;56108;48.730;9.304;2022-07-15T07:00:36;7.60;;;3.07;;
966;SDS011;56108;48.730;9.304;2022-07-15T07:02:44;3.70;;;3.40;;
966;SDS011;56108;48.730;9.304;2022-07-15T07:04:54;6.27;;;3.87;;
966;SDS011;56108;48.730;9.304;2022-07-15T07:07:02;4.13;;;3.80;;
966;SDS011;56108;48.730;9.304;2022-07-15T07:09:10;4.47;;;3.90;;
966;SDS011;56108;48.730;9.304;2022-07-15T07:11:19;3.07;;;2.80;;
966;SDS011;56108;48.730;9.304;2022-07-15T07:13:30;3.40;;;3.10;;
966;SDS011;56108;48.730;9.304;2022-07-15T07:15:38;6.77;;;2.83;;
966;SDS011;56108;48.730;9.304;2022-07-15T07:17:48;4.70;;;2.53;;
966;SDS011;56108;48.730;9.304;2022-07-15T07:19:57;2.80;;;2.30;;
966;SDS011;56108;48.730;9.304;2022-07-15T07:22:05;5.90;;;2.23;;
966;SDS011;56108;48.730;9.304;2022-07-15T07:24:13;2.73;;;2.50;;
966;SDS011;56108;48.730;9.304;2022-07-15T07:26:22;2.53;;;2.13;;
966;SDS011;56108;48.730;9.304;2022-07-15T07:28:33;3.80;;;3.40;;
966;SDS011;56108;48.730;9.304;2022-07-15T07:30:44;3.40;;;3.10;;
966;SDS011;56108;48.730;9.304;2022-07-15T07:32:54;3.00;;;2.80;;
966;SDS011;56108;48.730;9.304;2022-07-15T07:35:03;3.50;;;3.30;;
966;SDS011;56108;48.730;9.304;2022-07-15T07:37:11;2.30;;;2.20;;
966;SDS011;56108;48.730;9.304;2022-07-15T07:39:21;2.87;;;2.67;;
966;SDS011;56108;48.730;9.304;2022-07-15T07:41:29;2.70;;;2.50;;
966;SDS011;56108;48.730;9.304;2022-07-15T07:43:40;2.80;;;2.60;;
966;SDS011;56108;48.730;9.304;2022-07-15T07:45:48;3.00;;;2.80;;
966;SDS011;56108;48.730;9.304;2022-07-15T07:47:56;3.40;;;3.10;;
966;SDS011;56108;48.730;9.304;2022-07-15T07:50:04;2.80;;;2.60;;
966;SDS011;56108;48.730;9.304;2022-07-15T07:52:14;3.03;;;2.77;;
966;SDS011;56108;48.730;9.304;2022-07-15T07:54:29;2.47;;;2.30;;
966;SDS011;56108;48.730;9.304;2022-07-15T07:56:37;2.90;;;2.70;;
966;SDS011;56108;48.730;9.304;2022-07-15T07:58:48;3.10;;;2.80;;
966;SDS011;56108;48.730;9.304;2022-07-15T08:00:59;3.07;;;2.80;;
966;SDS011;56108;48.730;9.304;2022-07-15T08:03:08;3.17;;;2.90;;
966;SDS011;56108;48.730;9.304;2022-07-15T08:05:16;3.30;;;3.03;;
966;SDS011;56108;48.730;9.304;2022-07-15T08:07:29;2.90;;;2.70;;
966;SDS011;56108;48.730;9.304;2022-07-15T08:09:37;2.13;;;2.03;;
966;SDS011;56108;48.730;9.304;2022-07-15T08:11:45;2.90;;;2.70;;
966;SDS011;56108;48.730;9.304;2022-07-15T08:13:56;2.90;;;2.60;;
966;SDS011;56108;48.730;9.304;2022-07-15T08:16:04;2.80;;;2.60;;
966;SDS011;56108;48.730;9.304;2022-07-15T08:18:14;2.77;;;2.57;;
966;SDS011;56108;48.730;9.304;2022-07-15T08:20:22;3.20;;;3.00;;
966;SDS011;56108;48.730;9.304;2022-07-15T08:22:31;2.80;;;2.60;;
966;SDS011;56108;48.730;9.304;2022-07-15T08:24:39;2.77;;;2.67;;
966;SDS011;56108;48.730;9.304;2022-07-15T08:26:47;3.13;;;2.83;;
966;SDS011;56108;48.730;9.304;2022-07-15T08:28:58;2.80;;;2.60;;
966;SDS011;56108;48.730;9.304;2022-07-15T08:31:09;3.63;;;2.93;;
966;SDS011;56108;48.730;9.304;2022-07-15T08:33:18;2.80;;;2.60;;
966;SDS011;56108;48.730;9.304;2022-07-15T08:35:26;3.40;;;3.03;;
966;SDS011;56108;48.730;9.304;2022-07-15T08:37:35;2.93;;;2.83;;
966;SDS011;56108;48.730;9.304;2022-07-15T08:39:46;3.10;;;2.90;;
966;SDS011;56108;48.730;9.304;2022-07-15T08:41:55;2.97;;;2.67;;
966;SDS011;56108;48.730;9.304;2022-07-15T08:44:06;3.53;;;3.00;;
966;SDS011;56108;48.730;9.304;2022-07-15T08:46:14;3.10;;;2.87;;
966;SDS011;56108;48.730;9.304;2022-07-15T08:48:23;4.20;;;3.50;;
966;SDS011;56108;48.730;9.304;2022-07-15T08:50:36;3.87;;;3.33;;
966;SDS011;56108;48.730;9.304;2022-07-15T08:52:46;3.70;;;3.30;;
966;SDS011;56108;48.730;9.304;2022-07-15T08:54:56;3.40;;;3.10;;
966;SDS011;56108;48.730;9.304;2022-07-15T08:57:05;3.23;;;3.03;;
966;SDS011;56108;48.730;9.304;2022-07-15T08:59:16;3.40;;;3.20;;
966;SDS011;56108;48.730;9.304;2022-07-15T09:01:24;3.20;;;3.00;;
966;SDS011;56108;48.730;9.304;2022-07-15T09:03:33;3.30;;;3.00;;
966;SDS011;56108;48.730;9.304;2022-07-15T09:05:43;3.10;;;2.90;;
966;SDS011;56108;48.730;9.304;2022-07-15T09:07:53;3.00;;;2.73;;
966;SDS011;56108;48.730;9.304;2022-07-15T09:10:04;2.97;;;2.77;;
966;SDS011;56108;48.730;9.304;2022-07-15T09:12:12;3.10;;;2.80;;
966;SDS011;56108;48.730;9.304;2022-07-15T09:14:24;4.00;;;2.73;;
966;SDS011;56108;48.730;9.304;2022-07-15T09:16:33;2.90;;;2.60;;
966;SDS011;56108;48.730;9.304;2022-07-15T09:18:42;3.27;;;2.97;;
966;SDS011;56108;48.730;9.304;2022-07-15T09:20:51;2.80;;;2.30;;
966;SDS011;56108;48.730;9.304;2022-07-15T09:23:01;4.07;;;2.77;;
966;SDS011;56108;48.730;9.304;2022-07-15T09:25:10;2.53;;;2.40;;
966;SDS011;56108;48.730;9.304;2022-07-15T09:27:27;3.10;;;2.47;;
966;SDS011;56108;48.730;9.304;2022-07-15T09:29:38;2.73;;;2.63;;
966;SDS011;56108;48.730;9.304;2022-07-15T09:32:04;3.00;;;2.80;;
966;SDS011;56108;48.730;9.304;2022-07-15T09:34:44;4.50;;;3.10;;
966;SDS011;56108;48.730;9.304;2022-07-15T09:37:07;3.23;;;2.90;;
966;SDS011;56108;48.730;9.304;2022-07-15T09:39:15;3.00;;;2.80;;
966;SDS011;56108;48.730;9.304;2022-07-15T09:41:26;2.83;;;2.63;;
966;SDS011;56108;48.730;9.304;2022-07-15T09:43:42;2.77;;;2.67;;
966;SDS011;56108;48.730;9.304;2022-07-15T09:48:17;3.07;;;2.87;;
966;SDS011;56108;48.730;9.304;2022-07-15T09:50:32;3.70;;;3.00;;
966;SDS011;56108;48.730;9.304;2022-07-15T09:52:45;3.87;;;3.17;;
966;SDS011;56108;48.730;9.304;2022-07-15T09:54:55;3.47;;;3.17;;
966;SDS011;56108;48.730;9.304;2022-07-15T09:57:04;3.60;;;3.30;;
966;SDS011;56108;48.730;9.304;2022-07-15T09:59:15;3.50;;;3.20;;
966;SDS011;56108;48.730;9.304;2022-07-15T10:01:27;4.10;;;3.87;;
966;SDS011;56108;48.730;9.304;2022-07-15T10:03:36;4.00;;;3.60;;
966;SDS011;56108;48.730;9.304;2022-07-15T10:05:46;5.13;;;3.80;;
966;SDS011;56108;48.730;9.304;2022-07-15T10:07:58;3.67;;;3.37;;
966;SDS011;56108;48.730;9.304;2022-07-15T10:10:09;5.20;;;3.27;;
966;SDS011;56108;48.730;9.304;2022-07-15T10:12:18;3.70;;;3.40;;
966;SDS011;56108;48.730;9.304;2022-07-15T10:14:36;4.20;;;3.73;;
966;SDS011;56108;48.730;9.304;2022-07-15T10:19:45;4.27;;;3.97;;
966;SDS011;56108;48.730;9.304;2022-07-15T10:22:26;3.93;;;3.63;;
966;SDS011;56108;48.730;9.304;2022-07-15T10:24:52;6.17;;;3.60;;
966;SDS011;56108;48.730;9.304;2022-07-15T10:27:15;4.07;;;3.77;;
966;SDS011;56108;48.730;9.304;2022-07-15T10:29:38;3.37;;;3.17;;
966;SDS011;56108;48.730;9.304;2022-07-15T10:31:46;3.60;;;3.40;;
966;SDS011;56108;48.730;9.304;2022-07-15T10:36:35;5.70;;;3.93;;
966;SDS011;56108;48.730;9.304;2022-07-15T10:38:47;4.17;;;3.87;;
966;SDS011;56108;48.730;9.304;2022-07-15T10:41:11;4.80;;;3.80;;
966;SDS011;56108;48.730;9.304;2022-07-15T10:43:24;3.70;;;3.40;;
966;SDS011;56108;48.730;9.304;2022-07-15T10:46:01;4.23;;;3.93;;
966;SDS011;56108;48.730;9.304;2022-07-15T10:50:37;3.33;;;3.10;;
966;SDS011;56108;48.730;9.304;2022-07-15T10:52:51;3.97;;;3.67;;
966;SDS011;56108;48.730;9.304;2022-07-15T10:55:23;4.13;;;3.73;;
966;SDS011;56108;48.730;9.304;2022-07-15T11:00:00;4.80;;;4.40;;
966;SDS011;56108;48.730;9.304;2022-07-15T11:02:12;4.27;;;3.97;;
966;SDS011;56108;48.730;9.304;2022-07-15T11:04:23;3.93;;;3.63;;
966;SDS011;56108;48.730;9.304;2022-07-15T11:06:33;3.50;;;3.30;;
966;SDS011;56108;48.730;9.304;2022-07-15T11:12:01;4.97;;;3.47;;
966;SDS011;56108;48.730;9.304;2022-07-15T11:16:55;3.93;;;3.73;;
966;SDS011;56108;48.730;9.304;2022-07-15T11:19:04;4.00;;;3.57;;
966;SDS011;56108;48.730;9.304;2022-07-15T11:21:19;4.57;;;4.17;;
966;SDS011;56108;48.730;9.304;2022-07-15T11:23:29;4.27;;;3.97;;
966;SDS011;56108;48.730;9.304;2022-07-15T11:25:41;4.73;;;4.13;;
966;SDS011;56108;48.730;9.304;2022-07-15T11:28:04;3.87;;;3.57;;
966;SDS011;56108;48.730;9.304;2022-07-15T11:30:15;4.47;;;4.13;;
966;SDS011;56108;48.730;9.304;2022-07-15T11:32:25;4.40;;;4.00;;
966;SDS011;56108;48.730;9.304;2022-07-15T11:34:36;4.40;;;4.00;;
966;SDS011;56108;48.730;9.304;2022-07-15T11:36:57;3.70;;;3.50;;
966;SDS011;56108;48.730;9.304;2022-07-15T11:39:06;5.77;;;4.17;;
966;SDS011;56108;48.730;9.304;2022-07-15T11:41:18;4.20;;;3.87;;
966;SDS011;56108;48.730;9.304;2022-07-15T11:43:56;7.20;;;4.10;;
966;SDS011;56108;48.730;9.304;2022-07-15T11:46:18;6.40;;;4.20;;
966;SDS011;56108;48.730;9.304;2022-07-15T11:48:27;3.93;;;3.63;;
966;SDS011;56108;48.730;9.304;2022-07-15T11:50:48;3.90;;;3.60;;
966;SDS011;56108;48.730;9.304;2022-07-15T11:52:57;4.00;;;3.70;;
966;SDS011;56108;48.730;9.304;2022-07-15T11:55:07;4.63;;;4.33;;
966;SDS011;56108;48.730;9.304;2022-07-15T11:57:19;3.80;;;3.60;;
966;SDS011;56108;48.730;9.304;2022-07-15T11:59:30;4.10;;;3.80;;
966;SDS011;56108;48.730;9.304;2022-07-15T12:01:38;4.00;;;3.77;;
966;SDS011;56108;48.730;9.304;2022-07-15T12:03:47;4.87;;;4.47;;
966;SDS011;56108;48.730;9.304;2022-07-15T12:06:01;3.90;;;3.60;;
966;SDS011;56108;48.730;9.304;2022-07-15T12:08:12;4.13;;;3.77;;
966;SDS011;56108;48.730;9.304;2022-07-15T12:10:21;3.90;;;3.60;;
966;SDS011;56108;48.730;9.304;2022-07-15T12:12:51;4.40;;;4.00;;
966;SDS011;56108;48.730;9.304;2022-07-15T12:15:02;4.03;;;3.73;;
966;SDS011;56108;48.730;9.304;2022-07-15T12:17:11;4.57;;;4.13;;
966;SDS011;56108;48.730;9.304;2022-07-15T12:19:21;3.83;;;3.60;;
966;SDS011;56108;48.730;9.304;2022-07-15T12:21:32;4.20;;;3.83;;
966;SDS011;56108;48.730;9.304;2022-07-15T12:23:41;4.20;;;4.00;;
966;SDS011;56108;48.730;9.304;2022-07-15T12:26:04;3.90;;;3.53;;
966;SDS011;56108;48.730;9.304;2022-07-15T12:30:43;4.10;;;3.80;;
966;SDS011;56108;48.730;9.304;2022-07-15T12:35:23;4.73;;;4.43;;
966;SDS011;56108;48.730;9.304;2022-07-15T12:39:58;4.80;;;4.40;;
966;SDS011;56108;48.730;9.304;2022-07-15T12:42:09;3.97;;;3.67;;
966;SDS011;56108;48.730;9.304;2022-07-15T12:44:20;4.00;;;3.70;;
966;SDS011;56108;48.730;9.304;2022-07-15T12:49:03;4.20;;;4.00;;
966;SDS011;56108;48.730;9.304;2022-07-15T12:51:12;4.80;;;4.30;;
966;SDS011;56108;48.730;9.304;2022-07-15T12:53:21;4.47;;;4.07;;
966;SDS011;56108;48.730;9.304;2022-07-15T12:55:32;4.17;;;3.87;;
966;SDS011;56108;48.730;9.304;2022-07-15T12:57:48;4.20;;;3.90;;
966;SDS011;56108;48.730;9.304;2022-07-15T13:00:00;4.93;;;4.53;;
966;SDS011;56108;48.730;9.304;2022-07-15T13:02:12;3.90;;;3.60;;
966;SDS011;56108;48.730;9.304;2022-07-15T13:04:21;4.83;;;4.43;;
966;SDS011;56108;48.730;9.304;2022-07-15T13:06:30;4.20;;;3.80;;
966;SDS011;56108;48.730;9.304;2022-07-15T13:08:38;5.17;;;4.77;;
966;SDS011;56108;48.730;9.304;2022-07-15T13:10:49;4.03;;;3.73;;
966;SDS011;56108;48.730;9.304;2022-07-15T13:13:00;6.63;;;4.47;;
966;SDS011;56108;48.730;9.304;2022-07-15T13:15:13;4.40;;;4.00;;
966;SDS011;56108;48.730;9.304;2022-07-15T13:17:27;4.30;;;3.90;;
966;SDS011;56108;48.730;9.304;2022-07-15T13:19:35;4.37;;;4.00;;
966;SDS011;56108;48.730;9.304;2022-07-15T13:21:44;6.13;;;4.20;;
966;SDS011;56108;48.730;9.304;2022-07-15T13:23:54;5.53;;;4.40;;
966;SDS011;56108;48.730;9.304;2022-07-15T13:26:02;4.30;;;3.80;;
966;SDS011;56108;48.730;9.304;2022-07-15T13:28:11;4.27;;;3.97;;
966;SDS011;56108;48.730;9.304;2022-07-15T13:30:23;5.50;;;4.00;;
966;SDS011;56108;48.730;9.304;2022-07-15T13:32:31;4.70;;;4.30;;
966;SDS011;56108;48.730;9.304;2022-07-15T13:34:40;4.73;;;4.33;;
966;SDS011;56108;48.730;9.304;2022-07-15T13:36:55;4.67;;;4.37;;
966;SDS011;56108;48.730;9.304;2022-07-15T13:39:04;4.90;;;4.50;;
966;SDS011;56108;48.730;9.304;2022-07-15T13:41:29;4.70;;;4.40;;
966;SDS011;56108;48.730;9.304;2022-07-15T13:43:38;4.87;;;4.57;;
966;SDS011;56108;48.730;9.304;2022-07-15T13:45:49;4.67;;;4.30;;
966;SDS011;56108;48.730;9.304;2022-07-15T13:47:58;4.40;;;4.10;;
966;SDS011;56108;48.730;9.304;2022-07-15T13:50:07;4.63;;;4.33;;
966;SDS011;56108;48.730;9.304;2022-07-15T13:52:29;4.67;;;4.27;;
966;SDS011;56108;48.730;9.304;2022-07-15T13:54:38;4.20;;;3.90;;
966;SDS011;56108;48.730;9.304;2022-07-15T13:56:46;4.30;;;4.00;;
966;SDS011;56108;48.730;9.304;2022-07-15T13:59:01;4.23;;;3.77;;
966;SDS011;56108;48.730;9.304;2022-07-15T14:01:14;5.00;;;4.30;;
966;SDS011;56108;48.730;9.304;2022-07-15T14:03:23;4.37;;;3.73;;
966;SDS011;56108;48.730;9.304;2022-07-15T14:05:32;4.57;;;4.27;;